createdAt,value
2023-01-29T00:00:53.736Z,55.11
2023-01-29T00:01:58.129Z,55.2
2023-01-29T00:03:02.517Z,55.3
2023-01-29T00:04:07.044Z,55.32
2023-01-29T00:05:29.660Z,55.46
2023-01-29T00:06:33.899Z,55.35
2023-01-29T00:07:38.135Z,55.51
2023-01-29T00:08:42.494Z,55.6
2023-01-29T00:09:46.766Z,55.41
2023-01-29T00:10:51.029Z,55.5
2023-01-29T00:11:55.274Z,55.67
2023-01-29T00:12:59.582Z,55.64
2023-01-29T00:14:03.827Z,55.55
2023-01-29T00:15:08.068Z,55.35
2023-01-29T00:16:12.289Z,55.85
2023-01-29T00:17:16.887Z,55.64
2023-01-29T00:18:21.144Z,55.55
2023-01-29T00:19:25.465Z,55.72
2023-01-29T00:20:29.742Z,55.88
2023-01-29T00:21:34.011Z,55.54
2023-01-29T00:22:38.232Z,55.77
2023-01-29T00:23:42.482Z,55.7
2023-01-29T00:24:46.753Z,55.65
2023-01-29T00:25:51.019Z,55.71
2023-01-29T00:26:55.259Z,55.89
2023-01-29T00:27:59.509Z,55.95
2023-01-29T00:29:03.744Z,56.02
2023-01-29T00:30:07.976Z,56.07
2023-01-29T00:31:12.653Z,55.9
2023-01-29T00:32:17.555Z,55.94
2023-01-29T00:33:21.867Z,56.14
2023-01-29T00:34:26.112Z,56.16
2023-01-29T00:35:30.343Z,56.07
2023-01-29T00:36:34.606Z,56.32
2023-01-29T00:37:38.847Z,56.31
2023-01-29T00:38:43.086Z,56.23
2023-01-29T00:39:50.287Z,56.32
2023-01-29T00:40:54.531Z,56.35
2023-01-29T00:41:58.856Z,56.31
2023-01-29T00:43:03.108Z,56.53
2023-01-29T00:44:07.349Z,56.46
2023-01-29T00:45:11.629Z,56.5
2023-01-29T00:46:16.121Z,56.56
2023-01-29T00:47:20.412Z,56.64
2023-01-29T00:48:24.670Z,56.66
2023-01-29T00:49:28.930Z,56.67
2023-01-29T00:50:33.203Z,56.98
2023-01-29T00:51:37.429Z,56.97
2023-01-29T00:52:41.667Z,56.99
2023-01-29T00:53:45.908Z,57.07
2023-01-29T00:54:50.167Z,56.77
2023-01-29T00:55:54.469Z,57.06
2023-01-29T00:56:58.724Z,56.85
2023-01-29T00:58:02.986Z,56.77
2023-01-29T00:59:07.302Z,56.73
2023-01-29T01:00:11.539Z,56.9
2023-01-29T01:01:15.990Z,57.38
2023-01-29T01:02:20.635Z,57.06
2023-01-29T01:03:24.933Z,56.84
2023-01-29T01:04:29.218Z,56.92
2023-01-29T01:05:33.455Z,57.34
2023-01-29T01:06:37.691Z,56.98
2023-01-29T01:07:41.978Z,56.99
2023-01-29T01:08:46.259Z,57.23
2023-01-29T01:09:50.465Z,57.1
2023-01-29T01:10:54.680Z,57.21
2023-01-29T01:11:58.926Z,57.14
2023-01-29T01:13:03.194Z,57.29
2023-01-29T01:14:07.443Z,57.17
2023-01-29T01:15:11.800Z,57.41
2023-01-29T01:16:16.176Z,57.32
2023-01-29T01:17:20.448Z,57.47
2023-01-29T01:18:24.685Z,57.48
2023-01-29T01:19:28.985Z,57.61
2023-01-29T01:20:33.234Z,58.05
2023-01-29T01:21:37.474Z,57.8
2023-01-29T01:22:41.730Z,58.04
2023-01-29T01:23:45.935Z,57.98
2023-01-29T01:24:50.221Z,58.13
2023-01-29T01:25:54.476Z,57.78
2023-01-29T01:26:58.691Z,57.9
2023-01-29T01:28:02.109Z,57.42
2023-01-29T01:29:06.343Z,57.96
2023-01-29T01:30:10.613Z,58.15
2023-01-29T01:31:15.186Z,57.96
2023-01-29T01:32:19.472Z,58.09
2023-01-29T01:33:23.727Z,57.89
2023-01-29T01:34:27.986Z,57.58
2023-01-29T01:35:32.256Z,57.62
2023-01-29T01:36:36.544Z,57.71
2023-01-29T01:37:40.818Z,57.48
2023-01-29T01:38:45.089Z,57.5
2023-01-29T01:39:49.358Z,57.99
2023-01-29T01:40:53.609Z,57.47
2023-01-29T01:41:57.870Z,57.85
2023-01-29T01:43:02.176Z,57.62
2023-01-29T01:44:06.420Z,57.78
2023-01-29T01:45:10.633Z,57.66
2023-01-29T01:46:14.992Z,57.54
2023-01-29T01:47:19.234Z,57.76
2023-01-29T01:48:23.525Z,57.82
2023-01-29T01:49:27.797Z,57.82
2023-01-29T01:50:32.043Z,57.72
2023-01-29T01:51:36.290Z,57.6
2023-01-29T01:52:40.531Z,58.45
2023-01-29T01:53:44.777Z,58.15
2023-01-29T01:54:49.136Z,58
2023-01-29T01:55:53.435Z,57.81
2023-01-29T01:56:57.660Z,58.09
2023-01-29T01:58:01.901Z,58.05
2023-01-29T01:59:06.229Z,57.65
2023-01-29T02:00:10.458Z,58.06
2023-01-29T02:01:14.958Z,57.86
2023-01-29T02:02:19.505Z,58.13
2023-01-29T02:03:23.768Z,58.55
2023-01-29T02:04:28.033Z,58.01
2023-01-29T02:05:32.271Z,57.87
2023-01-29T02:06:36.515Z,58.23
2023-01-29T02:07:40.761Z,58.07
2023-01-29T02:08:45.016Z,58.07
2023-01-29T02:09:49.296Z,57.88
2023-01-29T02:10:53.544Z,57.78
2023-01-29T02:11:57.803Z,58.17
2023-01-29T02:13:02.042Z,58.27
2023-01-29T02:14:06.302Z,57.93
2023-01-29T02:15:10.603Z,58.43
2023-01-29T02:16:14.869Z,58.15
2023-01-29T02:17:19.325Z,58.07
2023-01-29T02:18:23.610Z,58.34
2023-01-29T02:19:27.849Z,58.11
2023-01-29T02:20:32.113Z,58.04
2023-01-29T02:21:36.362Z,57.98
2023-01-29T02:22:40.642Z,58.09
2023-01-29T02:23:44.980Z,58.31
2023-01-29T02:24:49.376Z,58.37
2023-01-29T02:25:53.625Z,57.91
2023-01-29T02:26:57.859Z,57.92
2023-01-29T02:28:02.186Z,58.02
2023-01-29T02:29:06.427Z,57.88
2023-01-29T02:30:10.662Z,57.75
2023-01-29T02:31:15.223Z,58.07
2023-01-29T02:32:19.536Z,58.22
2023-01-29T02:33:23.781Z,58.03
2023-01-29T02:34:28.043Z,57.87
2023-01-29T02:35:32.309Z,58.18
2023-01-29T02:36:36.599Z,58.18
2023-01-29T02:37:40.860Z,58.12
2023-01-29T02:38:45.121Z,58.06
2023-01-29T02:39:49.359Z,57.87
2023-01-29T02:40:53.633Z,58.15
2023-01-29T02:41:57.906Z,58.18
2023-01-29T02:43:02.129Z,58
2023-01-29T02:44:06.402Z,58.17
2023-01-29T02:45:10.636Z,58.06
2023-01-29T02:46:15.099Z,58.1
2023-01-29T02:47:19.382Z,57.81
2023-01-29T02:48:23.631Z,57.92
2023-01-29T02:49:27.893Z,57.85
2023-01-29T02:50:32.134Z,58.12
2023-01-29T02:51:36.395Z,58.21
2023-01-29T02:52:40.654Z,58.03
2023-01-29T02:53:44.902Z,58.3
2023-01-29T02:54:49.222Z,58.25
2023-01-29T02:55:53.473Z,58.15
2023-01-29T02:56:57.785Z,58.12
2023-01-29T02:58:02.074Z,57.92
2023-01-29T02:59:06.355Z,58.2
2023-01-29T03:00:10.678Z,58.19
2023-01-29T03:01:15.112Z,58.2
2023-01-29T03:02:19.466Z,58.24
2023-01-29T03:03:23.704Z,58.42
2023-01-29T03:04:27.946Z,58.43
2023-01-29T03:05:32.272Z,58.07
2023-01-29T03:06:36.513Z,58.3
2023-01-29T03:07:40.869Z,58.18
2023-01-29T03:08:45.213Z,57.99
2023-01-29T03:09:49.470Z,57.91
2023-01-29T03:10:53.688Z,57.88
2023-01-29T03:11:57.966Z,57.98
2023-01-29T03:13:02.228Z,58.08
2023-01-29T03:14:06.577Z,58.37
2023-01-29T03:15:10.839Z,58.27
2023-01-29T03:16:15.175Z,58.06
2023-01-29T03:17:19.485Z,58
2023-01-29T03:18:23.741Z,58.1
2023-01-29T03:19:27.981Z,58.19
2023-01-29T03:20:32.307Z,58.29
2023-01-29T03:21:36.584Z,58.01
2023-01-29T03:22:40.856Z,58
2023-01-29T03:23:45.085Z,57.84
2023-01-29T03:24:49.444Z,58.13
2023-01-29T03:25:53.716Z,57.87
2023-01-29T03:26:57.973Z,57.85
2023-01-29T03:28:02.229Z,58.02
2023-01-29T03:29:06.473Z,57.76
2023-01-29T03:30:10.721Z,57.91
2023-01-29T03:31:15.115Z,58.19
2023-01-29T03:32:19.403Z,58.03
2023-01-29T03:33:23.775Z,57.99
2023-01-29T03:34:28.039Z,58.06
2023-01-29T03:35:32.275Z,57.96
2023-01-29T03:36:36.497Z,58.19
2023-01-29T03:37:40.826Z,57.87
2023-01-29T03:38:45.077Z,58.04
2023-01-29T03:39:49.358Z,57.79
2023-01-29T03:40:53.669Z,57.78
2023-01-29T03:41:57.959Z,58
2023-01-29T03:43:02.174Z,58.04
2023-01-29T03:44:06.408Z,57.97
2023-01-29T03:45:10.634Z,57.86
2023-01-29T03:46:14.910Z,57.8
2023-01-29T03:47:19.224Z,58.09
2023-01-29T03:48:23.456Z,57.82
2023-01-29T03:49:27.678Z,58.01
2023-01-29T03:50:31.910Z,57.77
2023-01-29T03:51:36.196Z,57.78
2023-01-29T03:52:40.462Z,57.84
2023-01-29T03:53:44.747Z,57.88
2023-01-29T03:54:49.030Z,57.96
2023-01-29T03:55:53.267Z,57.79
2023-01-29T03:56:57.546Z,57.87
2023-01-29T03:58:01.794Z,57.94
2023-01-29T03:59:06.064Z,57.92
2023-01-29T04:00:10.331Z,57.82
2023-01-29T04:01:14.723Z,58.62
2023-01-29T04:02:18.989Z,58.69
2023-01-29T04:03:23.236Z,58.38
2023-01-29T04:04:27.681Z,58.37
2023-01-29T04:05:32.007Z,58.49
2023-01-29T04:06:36.272Z,58.05
2023-01-29T04:07:40.597Z,57.92
2023-01-29T04:08:44.828Z,58.27
2023-01-29T04:09:49.106Z,58.49
2023-01-29T04:10:53.462Z,58.84
2023-01-29T04:11:57.687Z,58.76
2023-01-29T04:13:02.188Z,58.24
2023-01-29T04:14:06.437Z,58.23
2023-01-29T04:15:10.708Z,58.13
2023-01-29T04:16:15.042Z,58.1
2023-01-29T04:17:19.340Z,57.96
2023-01-29T04:18:23.629Z,58.14
2023-01-29T04:19:27.891Z,58.61
2023-01-29T04:20:32.134Z,58.45
2023-01-29T04:21:36.370Z,58.58
2023-01-29T04:22:40.618Z,58.56
2023-01-29T04:23:44.883Z,58.17
2023-01-29T04:24:49.145Z,58.18
2023-01-29T04:25:53.434Z,58.1
2023-01-29T04:26:57.699Z,58.06
2023-01-29T04:28:02.002Z,58.18
2023-01-29T04:29:06.250Z,58.47
2023-01-29T04:30:10.520Z,58.17
2023-01-29T04:31:15.337Z,58.11
2023-01-29T04:32:19.607Z,58.09
2023-01-29T04:33:23.954Z,58.02
2023-01-29T04:34:28.205Z,57.98
2023-01-29T04:35:32.503Z,58.05
2023-01-29T04:36:36.761Z,58.08
2023-01-29T04:37:41.041Z,57.97
2023-01-29T04:38:45.289Z,58.07
2023-01-29T04:39:49.525Z,57.75
2023-01-29T04:40:53.773Z,58.09
2023-01-29T04:41:58.045Z,58.56
2023-01-29T04:43:02.286Z,58.55
2023-01-29T04:44:06.540Z,58.49
2023-01-29T04:45:10.761Z,58.36
2023-01-29T04:46:14.998Z,58.17
2023-01-29T04:47:19.411Z,58.85
2023-01-29T04:48:23.705Z,58.79
2023-01-29T04:49:27.932Z,58.86
2023-01-29T04:50:32.172Z,58.89
2023-01-29T04:51:36.475Z,58.92
2023-01-29T04:52:40.744Z,58.49
2023-01-29T04:53:44.985Z,58.83
2023-01-29T04:54:49.233Z,58.9
2023-01-29T04:55:53.486Z,58.81
2023-01-29T04:56:57.753Z,58.04
2023-01-29T04:58:02.079Z,58.27
2023-01-29T04:59:06.332Z,58.53
2023-01-29T05:00:10.637Z,58.53
2023-01-29T05:01:14.895Z,58.75
2023-01-29T05:02:19.154Z,58.76
2023-01-29T05:03:23.404Z,58.33
2023-01-29T05:04:27.638Z,58.5
2023-01-29T05:05:31.898Z,58.95
2023-01-29T05:06:36.144Z,58.25
2023-01-29T05:07:40.445Z,58
2023-01-29T05:08:44.806Z,58.68
2023-01-29T05:09:49.048Z,58.88
2023-01-29T05:10:53.265Z,58.41
2023-01-29T05:11:57.519Z,59.04
2023-01-29T05:13:01.770Z,58.37
2023-01-29T05:14:06.039Z,58.38
2023-01-29T05:15:10.292Z,58.94
2023-01-29T05:16:14.757Z,58.15
2023-01-29T05:17:19.044Z,58.05
2023-01-29T05:18:23.274Z,57.93
2023-01-29T05:19:27.567Z,58.75
2023-01-29T05:20:31.820Z,58.84
2023-01-29T05:21:36.071Z,58.85
2023-01-29T05:22:40.395Z,58.82
2023-01-29T05:23:44.637Z,58.46
2023-01-29T05:24:48.899Z,57.99
2023-01-29T05:25:53.294Z,57.86
2023-01-29T05:26:57.536Z,58.13
2023-01-29T05:28:01.809Z,58.11
2023-01-29T05:29:06.064Z,57.93
2023-01-29T05:30:10.342Z,57.49
2023-01-29T05:31:15.121Z,57.14
2023-01-29T05:32:19.417Z,56.94
2023-01-29T05:33:23.680Z,56.55
2023-01-29T05:34:27.925Z,56.29
2023-01-29T05:35:32.266Z,56.03
2023-01-29T05:36:36.491Z,55.78
2023-01-29T05:37:40.763Z,55.49
2023-01-29T05:38:45.022Z,55.27
2023-01-29T05:39:49.281Z,55.12
2023-01-29T05:40:53.551Z,54.96
2023-01-29T05:41:57.820Z,54.88
2023-01-29T05:43:02.121Z,54.79
2023-01-29T05:44:06.356Z,54.67
2023-01-29T05:45:10.721Z,54.55
2023-01-29T05:46:15.252Z,54.44
2023-01-29T05:47:19.535Z,54.38
2023-01-29T05:48:24.149Z,54.36
2023-01-29T05:49:28.402Z,54.37
2023-01-29T05:50:32.636Z,54.35
2023-01-29T05:51:36.885Z,54.39
2023-01-29T05:52:41.154Z,54.3
2023-01-29T05:53:45.396Z,54.3
2023-01-29T05:54:49.660Z,54.29
2023-01-29T05:55:54.065Z,54.29
2023-01-29T05:56:58.312Z,54.31
2023-01-29T05:58:04.819Z,54.29
2023-01-29T05:59:10.053Z,54.23
2023-01-29T06:00:14.688Z,54.28
2023-01-29T06:01:19.171Z,54.26
2023-01-29T06:02:23.548Z,54.27
2023-01-29T06:03:27.805Z,54.34
2023-01-29T06:04:32.070Z,54.42
2023-01-29T06:05:36.310Z,54.47
2023-01-29T06:06:40.537Z,54.51
2023-01-29T06:07:45.737Z,54.63
2023-01-29T06:08:50.034Z,54.71
2023-01-29T06:09:54.328Z,54.88
2023-01-29T06:10:58.568Z,54.92
2023-01-29T06:12:02.820Z,55
2023-01-29T06:13:07.069Z,55.11
2023-01-29T06:14:11.338Z,55.17
2023-01-29T06:15:15.608Z,55.33
2023-01-29T06:16:20.255Z,55.53
2023-01-29T06:17:24.626Z,55.65
2023-01-29T06:18:28.894Z,55.73
2023-01-29T06:19:33.123Z,55.89
2023-01-29T06:20:37.396Z,55.99
2023-01-29T06:21:41.649Z,55.96
2023-01-29T06:22:45.897Z,56.08
2023-01-29T06:23:50.175Z,56.13
2023-01-29T06:24:54.469Z,56.24
2023-01-29T06:25:58.789Z,56.35
2023-01-29T06:27:03.089Z,56.32
2023-01-29T06:28:07.347Z,56.44
2023-01-29T06:29:11.567Z,56.43
2023-01-29T06:30:16.717Z,56.33
2023-01-29T06:31:40.703Z,56.46
2023-01-29T06:32:45.019Z,56.5
2023-01-29T06:33:49.346Z,56.44
2023-01-29T06:34:53.590Z,56.47
2023-01-29T06:35:57.830Z,56.34
2023-01-29T06:37:02.096Z,55.6
2023-01-29T06:38:06.363Z,56.03
2023-01-29T06:39:10.661Z,56
2023-01-29T06:40:15.661Z,56.07
2023-01-29T06:41:20.055Z,56.04
2023-01-29T06:42:24.276Z,55.94
2023-01-29T06:43:28.532Z,55.94
2023-01-29T06:44:32.804Z,55.98
2023-01-29T06:45:37.212Z,55.9
2023-01-29T06:46:41.442Z,55.84
2023-01-29T06:47:45.694Z,55.87
2023-01-29T06:48:50.048Z,55.83
2023-01-29T06:49:54.361Z,56.26
2023-01-29T06:50:58.572Z,56.02
2023-01-29T06:52:02.875Z,55.97
2023-01-29T06:53:07.116Z,56.21
2023-01-29T06:54:11.349Z,56.11
2023-01-29T06:55:15.592Z,56.06
2023-01-29T06:56:19.851Z,55.92
2023-01-29T06:57:24.134Z,55.92
2023-01-29T06:58:28.380Z,56.25
2023-01-29T06:59:32.641Z,56.44
2023-01-29T07:00:37.016Z,56.12
2023-01-29T07:01:41.501Z,56.18
2023-01-29T07:02:45.825Z,56.58
2023-01-29T07:03:50.080Z,56.45
2023-01-29T07:04:54.355Z,56.36
2023-01-29T07:05:58.639Z,56.23
2023-01-29T07:07:02.968Z,56.29
2023-01-29T07:08:07.220Z,56.18
2023-01-29T07:09:11.470Z,56.41
2023-01-29T07:10:16.518Z,56.19
2023-01-29T07:11:20.915Z,56.28
2023-01-29T07:12:25.171Z,56.13
2023-01-29T07:13:29.412Z,56.2
2023-01-29T07:14:33.700Z,56.2
2023-01-29T07:15:39.295Z,56.29
2023-01-29T07:16:43.731Z,56.29
2023-01-29T07:17:48.002Z,56.29
2023-01-29T07:18:52.235Z,56.22
2023-01-29T07:19:56.515Z,56.23
2023-01-29T07:21:00.770Z,56.37
2023-01-29T07:22:05.028Z,56.27
2023-01-29T07:23:09.304Z,56.2
2023-01-29T07:24:13.854Z,56.13
2023-01-29T07:25:18.172Z,56.18
2023-01-29T07:26:22.441Z,56.46
2023-01-29T07:27:26.705Z,56.47
2023-01-29T07:28:30.922Z,56.32
2023-01-29T07:29:35.231Z,56.5
2023-01-29T07:30:39.483Z,56.3
2023-01-29T07:31:44.095Z,56.11
2023-01-29T07:32:48.362Z,55.95
2023-01-29T07:33:52.823Z,55.74
2023-01-29T07:34:57.115Z,55.91
2023-01-29T07:36:01.385Z,55.95
2023-01-29T07:37:05.743Z,55.99
2023-01-29T07:38:09.992Z,55.89
2023-01-29T07:39:14.240Z,55.87
2023-01-29T07:40:19.322Z,55.96
2023-01-29T07:41:23.556Z,56.15
2023-01-29T07:42:28.010Z,56.24
2023-01-29T07:43:32.259Z,56.31
2023-01-29T07:44:36.550Z,56.41
2023-01-29T07:45:41.341Z,56.38
2023-01-29T07:46:45.957Z,56.27
2023-01-29T07:47:50.374Z,56.41
2023-01-29T07:48:54.640Z,56.53
2023-01-29T07:49:58.871Z,56.53
2023-01-29T07:51:03.146Z,56.51
2023-01-29T07:52:07.441Z,56.6
2023-01-29T07:53:11.813Z,56.67
2023-01-29T07:54:16.124Z,56.45
2023-01-29T07:55:20.404Z,56.35
2023-01-29T07:56:24.674Z,56.11
2023-01-29T07:57:28.982Z,56.24
2023-01-29T07:58:35.630Z,56.11
2023-01-29T07:59:40.676Z,56.08
2023-01-29T08:00:45.045Z,56.09
2023-01-29T08:01:49.350Z,55.9
2023-01-29T08:02:53.636Z,55.91
2023-01-29T08:03:57.868Z,55.77
2023-01-29T08:05:02.117Z,55.62
2023-01-29T08:06:06.488Z,55.65
2023-01-29T08:07:10.756Z,55.63
2023-01-29T08:08:15.011Z,55.41
2023-01-29T08:09:19.275Z,55.35
2023-01-29T08:10:23.558Z,55.35
2023-01-29T08:11:27.856Z,55.25
2023-01-29T08:12:32.111Z,55.4
2023-01-29T08:13:36.390Z,55.26
2023-01-29T08:14:40.658Z,55.19
2023-01-29T08:15:45.102Z,55.09
2023-01-29T08:16:49.590Z,54.98
2023-01-29T08:25:10.655Z,54.51
2023-01-29T08:26:14.927Z,54.49
2023-01-29T08:27:19.153Z,54.43
2023-01-29T08:28:23.399Z,54.41
2023-01-29T08:29:27.662Z,54.2
2023-01-29T08:30:32.029Z,54.23
2023-01-29T08:31:36.387Z,54.15
2023-01-29T08:32:40.685Z,53.82
2023-01-29T08:33:44.938Z,53.8
2023-01-29T08:34:49.186Z,53.41
2023-01-29T08:35:53.453Z,53.53
2023-01-29T08:36:57.682Z,53.71
2023-01-29T08:38:02.144Z,53.4
2023-01-29T08:39:06.433Z,53.48
2023-01-29T08:40:10.762Z,53.61
2023-01-29T08:41:15.032Z,53.6
2023-01-29T08:42:19.289Z,53.62
2023-01-29T08:43:23.540Z,53.66
2023-01-29T08:44:27.757Z,53.63
2023-01-29T08:45:32.011Z,53.61
2023-01-29T08:46:36.242Z,53.35
2023-01-29T08:47:40.494Z,53.69
2023-01-29T08:48:44.761Z,53.7
2023-01-29T08:49:48.987Z,53.81
2023-01-29T08:50:53.212Z,53.54
2023-01-29T08:51:57.447Z,53.75
2023-01-29T08:53:01.711Z,53.86
2023-01-29T08:54:05.970Z,53.66
2023-01-29T08:55:10.243Z,53.38
2023-01-29T08:56:14.514Z,53.46
2023-01-29T08:57:18.851Z,53.37
2023-01-29T08:58:23.082Z,53.55
2023-01-29T08:59:27.362Z,53.55
2023-01-29T09:00:31.602Z,53.53
2023-01-29T09:01:35.977Z,53.53
2023-01-29T09:02:40.437Z,53.43
2023-01-29T09:03:44.706Z,53.45
2023-01-29T09:04:49.069Z,53.63
2023-01-29T09:05:53.578Z,53.58
2023-01-29T09:06:57.867Z,53.43
2023-01-29T09:08:02.132Z,53.58
2023-01-29T09:09:06.392Z,53.58
2023-01-29T09:10:10.619Z,53.61
2023-01-29T09:11:14.907Z,53.7
2023-01-29T09:12:19.153Z,53.73
2023-01-29T09:13:23.559Z,53.79
2023-01-29T09:14:27.840Z,53.74
2023-01-29T09:15:32.085Z,53.59
2023-01-29T09:16:36.490Z,53.58
2023-01-29T09:17:40.778Z,53.33
2023-01-29T09:18:45.028Z,52.98
2023-01-29T09:19:49.393Z,52.62
2023-01-29T09:20:53.631Z,52.54
2023-01-29T09:21:58.009Z,52.33
2023-01-29T09:23:02.516Z,52.07
2023-01-29T09:24:06.772Z,51.95
2023-01-29T09:25:11.010Z,51.74
2023-01-29T09:26:15.461Z,51.68
2023-01-29T09:27:19.730Z,51.61
2023-01-29T09:28:23.984Z,51.64
2023-01-29T09:29:28.224Z,51.73
2023-01-29T09:30:32.496Z,51.67
2023-01-29T09:31:36.991Z,51.76
2023-01-29T09:32:57.169Z,51.71
2023-01-29T09:34:01.619Z,51.81
2023-01-29T09:35:05.894Z,51.85
2023-01-29T09:36:10.135Z,51.93
2023-01-29T09:37:14.392Z,52.01
2023-01-29T09:38:18.705Z,52.07
2023-01-29T09:39:23.002Z,52.06
2023-01-29T09:40:27.312Z,52.08
2023-01-29T09:41:31.630Z,52.02
2023-01-29T09:42:37.931Z,52.04
2023-01-29T09:43:42.220Z,52.16
2023-01-29T09:44:46.455Z,52.22
2023-01-29T09:45:51.026Z,51.91
2023-01-29T09:46:55.367Z,51.9
2023-01-29T09:47:59.627Z,52.07
2023-01-29T09:49:03.872Z,52.25
2023-01-29T09:50:08.173Z,52.18
2023-01-29T09:51:12.461Z,52.04
2023-01-29T09:52:16.730Z,52.22
2023-01-29T09:53:21.201Z,51.95
2023-01-29T09:54:25.452Z,51.89
2023-01-29T09:55:29.731Z,51.57
2023-01-29T09:56:34.070Z,51.74
2023-01-29T09:57:38.323Z,51.64
2023-01-29T09:58:42.623Z,51.91
2023-01-29T09:59:46.900Z,52.01
2023-01-29T10:00:51.194Z,51.71
2023-01-29T10:01:55.867Z,51.64
2023-01-29T10:03:00.266Z,52.06
2023-01-29T10:04:04.656Z,51.93
2023-01-29T10:05:08.965Z,52.08
2023-01-29T10:06:13.370Z,51.87
2023-01-29T10:07:17.654Z,51.77
2023-01-29T10:08:21.928Z,51.65
2023-01-29T10:09:26.266Z,51.06
2023-01-29T10:10:30.533Z,51.45
2023-01-29T10:11:34.789Z,51.71
2023-01-29T10:12:39.105Z,50.92
2023-01-29T10:13:43.402Z,51.12
2023-01-29T10:14:47.683Z,51.32
2023-01-29T10:15:51.917Z,51.04
2023-01-29T10:16:56.325Z,50.84
2023-01-29T10:18:00.580Z,51.12
2023-01-29T10:19:04.885Z,51.01
2023-01-29T10:20:09.510Z,51.28
2023-01-29T10:21:13.822Z,51.29
2023-01-29T10:22:18.099Z,51.38
2023-01-29T10:23:22.336Z,51.33
2023-01-29T10:24:26.599Z,51.25
2023-01-29T10:25:30.976Z,51.18
2023-01-29T10:26:35.602Z,51.01
2023-01-29T10:27:39.930Z,50.9
2023-01-29T10:28:44.247Z,51.03
2023-01-29T10:29:48.585Z,50.72
2023-01-29T10:30:53.564Z,50.84
2023-01-29T10:31:58.379Z,50.9
2023-01-29T10:33:02.752Z,50.86
2023-01-29T10:34:07.027Z,50.63
2023-01-29T10:35:11.300Z,50.7
2023-01-29T10:36:15.616Z,50.86
2023-01-29T10:37:19.932Z,50.84
2023-01-29T10:38:24.211Z,50.72
2023-01-29T10:39:28.479Z,50.6
2023-01-29T10:40:32.743Z,50.85
2023-01-29T10:41:37.016Z,50.68
2023-01-29T10:42:41.350Z,50.66
2023-01-29T10:43:45.614Z,50.74
2023-01-29T10:44:49.898Z,50.61
2023-01-29T10:45:54.206Z,50.59
2023-01-29T10:46:58.665Z,50.75
2023-01-29T10:48:02.932Z,50.5
2023-01-29T10:49:07.253Z,50.51
2023-01-29T10:50:11.532Z,50.48
2023-01-29T10:51:15.783Z,50.54
2023-01-29T10:52:20.176Z,50.47
2023-01-29T10:53:24.506Z,50.33
2023-01-29T10:54:28.864Z,50.37
2023-01-29T10:55:33.119Z,50.25
2023-01-29T10:56:37.424Z,50.35
2023-01-29T10:57:41.739Z,50.27
2023-01-29T10:58:48.584Z,50.33
2023-01-29T10:59:52.893Z,50.42
2023-01-29T11:00:57.192Z,50.2
2023-01-29T11:02:01.668Z,50.29
2023-01-29T11:03:26.190Z,50.03
2023-01-29T11:04:31.183Z,49.98
2023-01-29T11:05:35.577Z,49.99
2023-01-29T11:06:39.891Z,50
2023-01-29T11:07:44.285Z,49.96
2023-01-29T11:08:48.722Z,49.92
2023-01-29T11:09:52.976Z,49.89
2023-01-29T11:10:57.414Z,49.84
2023-01-29T11:12:01.739Z,49.94
2023-01-29T11:13:06.112Z,49.87
2023-01-29T11:14:10.641Z,50.04
2023-01-29T11:15:14.953Z,49.88
2023-01-29T11:16:19.255Z,49.98
2023-01-29T11:17:23.720Z,50.06
2023-01-29T11:18:28.023Z,49.97
2023-01-29T11:19:32.427Z,49.99
2023-01-29T11:20:36.704Z,50.13
2023-01-29T11:21:41.085Z,50.17
2023-01-29T11:22:45.391Z,49.95
2023-01-29T11:23:49.846Z,50.05
2023-01-29T11:24:54.130Z,50.24
2023-01-29T11:25:58.399Z,50.17
2023-01-29T11:27:02.712Z,50.2
2023-01-29T11:28:07.274Z,49.92
2023-01-29T11:29:11.519Z,49.89
2023-01-29T11:30:17.130Z,50.09
2023-01-29T11:31:21.955Z,49.86
2023-01-29T11:32:26.275Z,50.03
2023-01-29T11:33:30.553Z,49.78
2023-01-29T11:34:34.833Z,49.75
2023-01-29T11:35:39.213Z,49.68
2023-01-29T11:36:43.549Z,49.69
2023-01-29T11:37:47.960Z,49.67
2023-01-29T11:38:52.174Z,49.7
2023-01-29T11:39:56.470Z,49.62
2023-01-29T11:41:00.738Z,49.82
2023-01-29T11:42:04.999Z,49.65
2023-01-29T11:43:09.322Z,49.67
2023-01-29T11:44:13.618Z,49.64
2023-01-29T11:45:17.916Z,49.86
2023-01-29T11:46:22.493Z,49.6
2023-01-29T11:47:26.786Z,49.76
2023-01-29T11:48:31.122Z,49.66
2023-01-29T11:49:35.517Z,49.97
2023-01-29T11:50:39.885Z,50.1
2023-01-29T11:51:44.193Z,50.05
2023-01-29T11:52:48.460Z,50.01
2023-01-29T11:53:52.733Z,50.19
2023-01-29T11:54:57.022Z,50.14
2023-01-29T11:56:01.284Z,50.22
2023-01-29T11:57:05.548Z,50.03
2023-01-29T11:58:09.810Z,50.35
2023-01-29T11:59:14.121Z,50.34
2023-01-29T12:00:20.361Z,50.56
2023-01-29T12:01:24.671Z,50.7
2023-01-29T12:02:28.967Z,50.86
2023-01-29T12:03:33.393Z,50.83
2023-01-29T12:04:37.638Z,50.74
2023-01-29T12:05:41.973Z,50.78
2023-01-29T12:06:46.270Z,50.83
2023-01-29T12:07:50.588Z,50.92
2023-01-29T12:08:54.913Z,50.89
2023-01-29T12:09:59.153Z,50.91
2023-01-29T12:11:03.405Z,51.04
2023-01-29T12:12:07.649Z,50.8
2023-01-29T12:13:12.080Z,51.02
2023-01-29T12:14:16.330Z,51.02
2023-01-29T12:15:20.638Z,50.95
2023-01-29T12:16:25.051Z,51.02
2023-01-29T12:17:29.332Z,50.96
2023-01-29T12:18:33.574Z,51.1
2023-01-29T12:19:37.843Z,50.95
2023-01-29T12:20:42.102Z,50.97
2023-01-29T12:21:46.402Z,50.92
2023-01-29T12:22:50.649Z,50.9
2023-01-29T12:23:54.914Z,51.03
2023-01-29T12:24:59.176Z,50.96
2023-01-29T12:26:03.397Z,50.87
2023-01-29T12:27:07.690Z,50.97
2023-01-29T12:28:11.947Z,51.04
2023-01-29T12:29:16.213Z,51.19
2023-01-29T12:30:21.172Z,51.18
2023-01-29T12:31:25.494Z,50.96
2023-01-29T12:32:29.745Z,50.83
2023-01-29T12:33:33.994Z,51.28
2023-01-29T12:34:38.283Z,51.17
2023-01-29T12:35:42.756Z,51.24
2023-01-29T12:36:46.968Z,51.27
2023-01-29T12:37:51.226Z,51.33
2023-01-29T12:38:55.529Z,51.51
2023-01-29T12:39:59.800Z,51.47
2023-01-29T12:41:04.089Z,51.62
2023-01-29T12:42:08.329Z,51.74
2023-01-29T12:43:12.575Z,51.88
2023-01-29T12:44:16.802Z,51.91
2023-01-29T12:45:21.093Z,51.98
2023-01-29T12:46:25.503Z,52.02
2023-01-29T12:47:29.805Z,52.04
2023-01-29T12:48:34.052Z,52.09
2023-01-29T12:49:38.316Z,52.09
2023-01-29T12:50:42.589Z,52.13
2023-01-29T12:51:46.859Z,52.19
2023-01-29T12:52:51.143Z,52.26
2023-01-29T12:53:55.503Z,52.32
2023-01-29T12:54:59.804Z,52.39
2023-01-29T12:56:04.098Z,52.44
2023-01-29T12:57:08.344Z,52.46
2023-01-29T12:58:12.626Z,52.53
2023-01-29T12:59:17.009Z,52.55
2023-01-29T13:00:21.541Z,52.56
2023-01-29T13:01:26.014Z,52.6
2023-01-29T13:02:30.611Z,52.65
2023-01-29T13:03:36.328Z,52.67
2023-01-29T13:04:40.782Z,52.7
2023-01-29T13:05:45.126Z,52.83
2023-01-29T13:06:49.699Z,52.8
2023-01-29T13:07:53.975Z,52.88
2023-01-29T13:08:58.291Z,52.84
2023-01-29T13:10:03.054Z,52.91
2023-01-29T13:11:07.312Z,53
2023-01-29T13:12:11.539Z,53.01
2023-01-29T13:13:15.860Z,53.1
2023-01-29T13:14:20.149Z,53.15
2023-01-29T13:15:24.386Z,53.22
2023-01-29T13:16:28.706Z,53.27
2023-01-29T13:17:33.001Z,53.27
2023-01-29T13:18:37.264Z,53.37
2023-01-29T13:19:41.497Z,52.99
2023-01-29T13:20:45.876Z,53.31
2023-01-29T13:21:50.130Z,53.26
2023-01-29T13:22:54.406Z,53.39
2023-01-29T13:23:58.685Z,53.18
2023-01-29T13:25:07.417Z,53.17
2023-01-29T13:26:15.017Z,53.37
2023-01-29T13:27:22.139Z,53.3
2023-01-29T13:28:26.457Z,53.33
2023-01-29T13:29:30.706Z,53.06
2023-01-29T13:30:35.214Z,52.92
2023-01-29T13:31:39.579Z,52.85
2023-01-29T13:32:43.846Z,52.83
2023-01-29T13:33:48.125Z,52.71
2023-01-29T13:34:52.406Z,52.58
2023-01-29T13:35:56.656Z,52.43
2023-01-29T13:37:00.968Z,52.37
2023-01-29T13:38:05.201Z,52.3
2023-01-29T13:39:09.500Z,52.44
2023-01-29T13:40:13.786Z,52.39
2023-01-29T13:41:18.125Z,52.43
2023-01-29T13:42:22.381Z,52.32
2023-01-29T13:43:26.623Z,52.42
2023-01-29T13:44:30.911Z,52.21
2023-01-29T13:45:35.321Z,52.33
2023-01-29T13:46:39.604Z,52.46
2023-01-29T13:47:43.872Z,52.38
2023-01-29T13:48:48.247Z,52.53
2023-01-29T13:49:52.615Z,52.45
2023-01-29T13:50:56.834Z,52.61
2023-01-29T13:52:01.108Z,52.4
2023-01-29T13:53:05.358Z,52.35
2023-01-29T13:54:09.686Z,52.16
2023-01-29T13:55:13.977Z,52.02
2023-01-29T13:56:18.244Z,51.86
2023-01-29T13:57:22.496Z,51.6
2023-01-29T13:58:26.763Z,51.45
2023-01-29T13:59:31.000Z,51.35
2023-01-29T14:00:35.296Z,51.24